createdAt,value
2022-12-20T00:01:29.459Z,29.98
2022-12-20T00:03:58.381Z,30.65
2022-12-20T00:06:25.908Z,33.78
2022-12-20T00:09:01.194Z,26.50
2022-12-20T00:11:30.450Z,28.50
2022-12-20T00:13:58.121Z,27.92
2022-12-20T00:16:27.187Z,33.70
2022-12-20T00:19:04.253Z,26.58
2022-12-20T00:21:33.251Z,31.85
2022-12-20T00:24:00.892Z,36.47
2022-12-20T00:26:30.827Z,37.92
2022-12-20T00:28:58.012Z,31.67
2022-12-20T00:31:26.296Z,33.72
2022-12-20T00:33:55.026Z,34.70
2022-12-20T00:36:23.265Z,27.05
2022-12-20T00:38:52.648Z,30.25
2022-12-20T00:41:23.386Z,28.80
2022-12-20T00:43:50.239Z,34.33
2022-12-20T00:46:19.623Z,36.17
2022-12-20T00:48:47.001Z,28.02
2022-12-20T00:51:17.630Z,31.08
2022-12-20T00:53:45.414Z,29.83
2022-12-20T00:56:13.079Z,32.60
2022-12-20T00:58:42.461Z,35.83
2022-12-20T01:01:23.478Z,32.13
2022-12-20T01:03:51.827Z,43.35
2022-12-20T01:06:19.516Z,33.75
2022-12-20T01:08:46.820Z,30.90
2022-12-20T01:11:15.761Z,34.45
2022-12-20T01:13:45.507Z,34.05
2022-12-20T01:16:18.737Z,27.25
2022-12-20T01:18:46.027Z,33.33
2022-12-20T01:21:15.407Z,29.55
2022-12-20T01:23:42.378Z,28.88
2022-12-20T01:26:17.192Z,26.83
2022-12-20T01:28:47.167Z,26.77
2022-12-20T01:31:17.069Z,32.03
2022-12-20T01:33:45.159Z,35.17
2022-12-20T01:36:18.525Z,32.58
2022-12-20T01:38:46.084Z,34.42
2022-12-20T01:41:22.142Z,29.52
2022-12-20T01:43:54.302Z,27.15
2022-12-20T01:46:25.851Z,30.10
2022-12-20T01:48:57.552Z,27.02
2022-12-20T01:51:26.006Z,28.85
2022-12-20T01:54:01.888Z,31.45
2022-12-20T01:56:29.096Z,28.05
2022-12-20T01:58:58.023Z,25.90
2022-12-20T02:01:37.776Z,26.10
2022-12-20T02:04:04.748Z,22.45
2022-12-20T02:06:31.545Z,28.90
2022-12-20T02:09:00.561Z,29.50
2022-12-20T02:11:30.674Z,26.55
2022-12-20T02:14:14.600Z,26.20
2022-12-20T02:16:50.514Z,23.27
2022-12-20T02:19:44.160Z,29.58
2022-12-20T02:22:34.309Z,22.63
2022-12-20T02:25:13.626Z,27.08
2022-12-20T02:27:55.225Z,26.58
2022-12-20T02:30:24.112Z,33.88
2022-12-20T02:33:02.578Z,37.65
2022-12-20T02:35:32.792Z,27.77
2022-12-20T02:38:02.728Z,30.58
2022-12-20T02:40:41.026Z,27.70
2022-12-20T02:43:30.945Z,27.95
2022-12-20T02:46:00.491Z,26.00
2022-12-20T02:48:30.985Z,24.70
2022-12-20T02:51:00.344Z,30.58
2022-12-20T02:53:29.312Z,25.67
2022-12-20T02:56:09.902Z,25.35
2022-12-20T02:58:52.201Z,31.13
2022-12-20T03:01:31.096Z,25.85
2022-12-20T03:03:59.741Z,31.40
2022-12-20T03:06:27.158Z,29.02
2022-12-20T03:08:54.022Z,30.50
2022-12-20T03:11:20.815Z,26.17
2022-12-20T03:13:48.033Z,24.63
2022-12-20T03:16:15.570Z,30.98
2022-12-20T03:18:42.909Z,24.05
2022-12-20T03:21:09.684Z,25.60
2022-12-20T03:23:36.499Z,25.95
2022-12-20T03:26:03.295Z,23.25
2022-12-20T03:28:30.503Z,26.98
2022-12-20T03:30:58.444Z,28.73
2022-12-20T03:33:26.375Z,26.08
2022-12-20T03:35:53.545Z,26.67
2022-12-20T03:38:20.552Z,23.55
2022-12-20T03:40:48.054Z,27.65
2022-12-20T03:43:14.858Z,27.00
2022-12-20T03:45:41.969Z,25.10
2022-12-20T03:48:09.625Z,25.88
2022-12-20T03:50:37.313Z,30.75
2022-12-20T03:53:04.824Z,27.05
2022-12-20T03:55:32.883Z,25.38
2022-12-20T03:57:59.681Z,29.95
2022-12-20T04:00:26.984Z,28.83
2022-12-20T04:02:53.919Z,24.20
2022-12-20T04:05:21.381Z,28.25
2022-12-20T04:07:48.126Z,22.23
2022-12-20T04:10:14.977Z,27.08
2022-12-20T04:12:42.159Z,24.85
2022-12-20T04:15:09.365Z,25.75
2022-12-20T04:17:36.589Z,28.02
2022-12-20T04:20:19.406Z,24.92
2022-12-20T04:22:51.544Z,26.42
2022-12-20T04:25:20.848Z,25.75
2022-12-20T04:27:47.836Z,30.60
2022-12-20T04:30:14.969Z,28.73
2022-12-20T04:32:41.746Z,25.83
2022-12-20T04:35:09.067Z,24.13
2022-12-20T04:37:35.963Z,28.92
2022-12-20T04:40:02.800Z,28.10
2022-12-20T04:42:30.014Z,28.08
2022-12-20T04:44:56.774Z,25.50
2022-12-20T04:47:23.775Z,26.52
2022-12-20T04:49:50.618Z,29.90
2022-12-20T04:52:37.817Z,27.83
2022-12-20T04:55:06.714Z,25.73
2022-12-20T04:57:34.636Z,31.23
2022-12-20T05:00:02.010Z,35.35
2022-12-20T05:02:29.374Z,34.67
2022-12-20T05:04:56.227Z,28.50
2022-12-20T05:07:23.488Z,26.63
2022-12-20T05:09:50.261Z,32.00
2022-12-20T05:12:17.059Z,28.85
2022-12-20T05:14:44.179Z,40.72
2022-12-20T05:17:10.928Z,33.15
2022-12-20T05:19:38.234Z,35.72
2022-12-20T05:22:25.487Z,28.63
2022-12-20T05:25:11.668Z,31.35
2022-12-20T05:27:38.513Z,29.35
2022-12-20T05:30:06.178Z,32.03
2022-12-20T05:32:33.019Z,29.38
2022-12-20T05:35:00.195Z,32.53
2022-12-20T05:37:27.381Z,35.13
2022-12-20T05:39:54.160Z,33.08
2022-12-20T05:42:21.418Z,37.35
2022-12-20T05:44:48.196Z,37.85
2022-12-20T05:47:15.432Z,29.88
2022-12-20T05:49:42.587Z,30.08
2022-12-20T05:52:09.480Z,32.67
2022-12-20T05:54:36.647Z,30.52
2022-12-20T05:57:03.521Z,29.20
2022-12-20T05:59:30.684Z,36.65
2022-12-20T06:01:57.949Z,36.15
2022-12-20T06:04:24.974Z,31.73
2022-12-20T06:06:52.947Z,33.30
2022-12-20T06:09:19.877Z,28.77
2022-12-20T06:11:48.130Z,36.47
2022-12-20T06:14:14.903Z,38.17
2022-12-20T06:16:42.505Z,30.55
2022-12-20T06:19:09.349Z,33.88
2022-12-20T06:21:36.332Z,29.67
2022-12-20T06:24:04.236Z,34.53
2022-12-20T06:26:36.780Z,33.92
2022-12-20T06:29:17.185Z,36.88
2022-12-20T06:31:44.686Z,31.70
2022-12-20T06:34:12.065Z,34.80
2022-12-20T06:36:40.286Z,35.72
2022-12-20T06:39:13.217Z,35.03
2022-12-20T06:41:42.482Z,36.10
2022-12-20T06:44:09.677Z,32.38
2022-12-20T06:46:40.251Z,38.85
2022-12-20T06:49:07.498Z,35.20
2022-12-20T06:51:34.398Z,40.85
2022-12-20T06:54:04.757Z,41.17
2022-12-20T06:56:40.882Z,32.03
2022-12-20T06:59:08.787Z,36.10
2022-12-20T07:05:17.171Z,35.20
2022-12-20T07:07:45.445Z,31.55
2022-12-20T07:10:13.574Z,35.42
2022-12-20T07:12:47.384Z,35.28
2022-12-20T07:15:15.569Z,34.40
2022-12-20T07:17:44.346Z,40.30
2022-12-20T07:20:13.997Z,38.22
2022-12-20T07:22:42.336Z,34.75
2022-12-20T07:25:11.494Z,35.33
2022-12-20T07:27:39.235Z,36.33
2022-12-20T07:30:06.704Z,38.72
2022-12-20T07:32:34.995Z,32.17
2022-12-20T07:35:01.925Z,33.75
2022-12-20T07:37:32.114Z,36.20
2022-12-20T07:39:59.134Z,38.55
2022-12-20T07:42:36.170Z,30.80
2022-12-20T07:45:08.691Z,29.08
2022-12-20T07:47:36.219Z,32.55
2022-12-20T07:50:05.315Z,34.08
2022-12-20T07:52:34.824Z,35.63
2022-12-20T07:55:04.705Z,35.67
2022-12-20T07:57:38.520Z,34.28
2022-12-20T08:00:08.891Z,31.20
2022-12-20T08:02:42.128Z,35.25
2022-12-20T08:05:10.746Z,38.03
2022-12-20T08:07:40.472Z,38.83
2022-12-20T08:10:15.715Z,33.03
2022-12-20T08:12:47.999Z,37.65
2022-12-20T08:15:19.692Z,37.47
2022-12-20T08:17:54.149Z,40.33
2022-12-20T08:20:21.083Z,35.25
2022-12-20T08:22:47.994Z,31.23
2022-12-20T08:25:16.933Z,48.88
2022-12-20T08:27:45.205Z,39.35
2022-12-20T08:30:13.089Z,43.63
2022-12-20T08:32:39.997Z,38.08
2022-12-20T08:35:08.214Z,38.53
2022-12-20T08:37:39.556Z,39.97
2022-12-20T08:40:07.924Z,33.13
2022-12-20T08:42:35.502Z,30.73
2022-12-20T08:45:02.870Z,35.33
2022-12-20T08:47:31.281Z,34.88
2022-12-20T08:49:58.596Z,34.55
2022-12-20T08:52:34.513Z,36.90
2022-12-20T08:55:05.245Z,38.08
2022-12-20T08:57:33.112Z,60.60
2022-12-20T09:00:00.138Z,158.43
2022-12-20T09:02:27.292Z,63.03
2022-12-20T09:04:54.343Z,64.70
2022-12-20T09:07:21.094Z,43.22
2022-12-20T09:09:53.799Z,45.70
2022-12-20T09:12:20.612Z,49.90
2022-12-20T09:14:49.801Z,38.53
2022-12-20T09:17:16.718Z,57.05
2022-12-20T09:19:43.886Z,57.42
2022-12-20T09:22:10.642Z,42.83
2022-12-20T09:24:38.141Z,42.55
2022-12-20T09:27:05.271Z,36.67
2022-12-20T09:29:35.557Z,35.28
2022-12-20T09:32:03.219Z,39.50
2022-12-20T09:34:30.174Z,38.95
2022-12-20T09:36:57.347Z,38.72
2022-12-20T09:39:24.164Z,36.03
2022-12-20T09:41:51.438Z,37.17
2022-12-20T09:44:31.167Z,38.45
2022-12-20T09:47:10.380Z,40.35
2022-12-20T09:49:42.594Z,36.42
2022-12-20T09:52:33.911Z,34.13
2022-12-20T09:55:34.391Z,43.30
2022-12-20T09:58:11.054Z,41.03
2022-12-20T10:00:53.477Z,37.15
2022-12-20T10:03:25.172Z,45.92
2022-12-20T10:06:15.680Z,38.80
2022-12-20T10:08:56.816Z,43.78
2022-12-20T10:11:50.143Z,40.00
2022-12-20T10:14:39.856Z,38.15
2022-12-20T10:17:15.704Z,44.28
2022-12-20T10:20:09.050Z,40.30
2022-12-20T10:22:46.326Z,50.60
2022-12-20T10:25:19.076Z,45.03
2022-12-20T10:27:47.969Z,41.05
2022-12-20T10:30:17.332Z,46.10
2022-12-20T10:32:47.139Z,36.35
2022-12-20T10:35:38.451Z,39.97
2022-12-20T10:38:08.920Z,42.95
2022-12-20T10:41:19.377Z,40.55
2022-12-20T10:43:44.671Z,41.28
2022-12-20T10:46:14.305Z,46.42
2022-12-20T10:48:43.536Z,46.88
2022-12-20T10:51:15.357Z,34.70
2022-12-20T10:54:04.027Z,42.85
2022-12-20T10:56:38.506Z,34.13
2022-12-20T10:59:18.138Z,36.53
2022-12-20T11:01:48.490Z,36.47
2022-12-20T11:04:42.334Z,37.33
2022-12-20T11:07:27.957Z,43.75
2022-12-20T11:09:57.813Z,50.22
2022-12-20T11:12:24.785Z,37.33
2022-12-20T11:15:13.011Z,45.20
2022-12-20T11:17:48.888Z,40.78
2022-12-20T11:20:27.031Z,44.45
2022-12-20T11:23:13.343Z,48.17
2022-12-20T11:26:22.652Z,43.35
2022-12-20T11:29:29.605Z,44.00
2022-12-20T11:32:30.740Z,50.67
2022-12-20T11:35:04.022Z,36.60
2022-12-20T11:37:44.830Z,41.05
2022-12-20T11:40:28.140Z,41.20
2022-12-20T11:43:19.269Z,46.50
2022-12-20T11:46:14.399Z,40.17
2022-12-20T11:49:02.607Z,49.40
2022-12-20T11:51:44.139Z,54.45
2022-12-20T11:54:22.222Z,39.50
2022-12-20T11:56:53.551Z,37.20
2022-12-20T11:59:37.964Z,31.17
2022-12-20T12:02:15.564Z,37.35
2022-12-20T12:04:57.210Z,42.92
2022-12-20T12:07:36.984Z,35.00
2022-12-20T12:10:20.200Z,38.85
2022-12-20T12:12:58.199Z,29.23
2022-12-20T12:15:51.301Z,34.65
2022-12-20T12:18:22.737Z,32.35
2022-12-20T12:21:21.367Z,32.75
2022-12-20T12:24:13.139Z,39.03
2022-12-20T12:26:43.841Z,35.95
2022-12-20T12:29:14.058Z,37.38
2022-12-20T12:32:04.283Z,36.50
2022-12-20T12:34:54.386Z,39.13
2022-12-20T12:37:47.068Z,52.20
2022-12-20T12:40:19.386Z,38.42
2022-12-20T12:43:04.018Z,37.55
2022-12-20T12:45:52.088Z,44.88
2022-12-20T12:48:38.897Z,46.47
2022-12-20T12:51:07.705Z,47.85
2022-12-20T12:53:55.515Z,51.85
2022-12-20T12:56:43.817Z,41.83
2022-12-20T12:59:34.856Z,44.72
2022-12-20T13:02:14.223Z,62.13
2022-12-20T13:04:59.613Z,48.83
2022-12-20T13:07:32.607Z,40.50
2022-12-20T13:10:01.724Z,40.40
2022-12-20T13:12:40.547Z,47.88
2022-12-20T13:15:22.710Z,52.60
2022-12-20T13:17:54.445Z,59.45
2022-12-20T13:20:30.289Z,48.60
2022-12-20T13:23:08.856Z,41.83
2022-12-20T13:25:39.196Z,48.88
2022-12-20T13:28:25.214Z,63.85
2022-12-20T13:31:01.094Z,42.38
2022-12-20T13:33:43.580Z,56.75
2022-12-20T13:36:10.749Z,52.58
2022-12-20T13:38:47.035Z,41.08
2022-12-20T13:41:24.391Z,47.50
2022-12-20T13:43:56.283Z,48.65
2022-12-20T13:46:50.952Z,53.72
2022-12-20T13:49:29.607Z,47.08
2022-12-20T13:52:12.477Z,43.22
2022-12-20T13:54:49.209Z,52.63
2022-12-20T13:57:21.994Z,57.10
2022-12-20T13:59:53.121Z,44.08
2022-12-20T14:02:27.029Z,50.58
2022-12-20T14:05:30.095Z,50.72
2022-12-20T14:08:03.305Z,65.88
2022-12-20T14:10:32.301Z,59.63
2022-12-20T14:13:00.719Z,45.03
2022-12-20T14:15:33.605Z,69.50
2022-12-20T14:18:19.996Z,60.78
2022-12-20T14:21:07.076Z,43.97
2022-12-20T14:23:39.965Z,53.92
2022-12-20T14:26:11.193Z,63.90
2022-12-20T14:28:39.795Z,51.80
2022-12-20T14:31:21.974Z,70.80
2022-12-20T14:33:51.914Z,50.95
2022-12-20T14:36:20.214Z,50.40
2022-12-20T14:38:50.002Z,48.08
2022-12-20T14:41:31.780Z,42.97
2022-12-20T14:44:03.384Z,54.95
2022-12-20T14:46:31.635Z,68.72
2022-12-20T14:49:37.226Z,61.15
2022-12-20T14:52:21.938Z,48.58
2022-12-20T14:55:10.826Z,65.97
2022-12-20T14:57:40.384Z,56.20
2022-12-20T15:00:24.557Z,80.30
2022-12-20T15:03:00.054Z,48.53
2022-12-20T15:05:36.591Z,47.13
2022-12-20T15:08:34.054Z,50.97
2022-12-20T15:11:22.718Z,51.50
2022-12-20T15:13:54.912Z,59.90
2022-12-20T15:16:27.179Z,63.83
2022-12-20T15:19:06.235Z,55.90
2022-12-20T15:21:37.752Z,53.55
2022-12-20T15:24:10.208Z,66.30
2022-12-20T15:26:38.787Z,80.18
2022-12-20T15:29:06.294Z,50.83
2022-12-20T15:31:36.324Z,53.58
2022-12-20T15:34:32.666Z,52.53
2022-12-20T15:37:01.014Z,49.00
2022-12-20T15:39:28.039Z,52.47
2022-12-20T15:41:56.400Z,58.17
2022-12-20T15:44:26.170Z,49.45
2022-12-20T15:46:53.622Z,48.30
2022-12-20T15:49:30.727Z,47.63
2022-12-20T15:51:58.360Z,49.70
2022-12-20T15:54:31.440Z,53.67
2022-12-20T15:57:03.097Z,54.47
2022-12-20T16:02:26.029Z,49.88
2022-12-20T16:04:53.803Z,44.97
2022-12-20T16:07:21.149Z,47.40
2022-12-20T16:09:48.181Z,64.05
2022-12-20T16:12:28.253Z,55.38
2022-12-20T16:14:57.532Z,47.97
2022-12-20T16:17:26.035Z,46.13
2022-12-20T16:19:53.065Z,55.55
2022-12-20T16:22:26.039Z,48.83
2022-12-20T16:24:53.392Z,45.00
2022-12-20T16:27:20.827Z,48.33
2022-12-20T16:29:48.095Z,44.72
2022-12-20T16:32:22.111Z,42.55
2022-12-20T16:34:50.736Z,45.47
2022-12-20T16:37:18.258Z,43.75
2022-12-20T16:39:46.341Z,41.95
2022-12-20T16:42:18.131Z,44.67
2022-12-20T16:44:46.334Z,40.95
2022-12-20T16:47:14.645Z,45.00
2022-12-20T16:49:49.617Z,48.83
2022-12-20T16:52:20.323Z,43.22
2022-12-20T16:54:48.082Z,42.00
2022-12-20T16:57:15.377Z,39.28
2022-12-20T16:59:42.158Z,36.15
2022-12-20T17:02:32.824Z,44.53
2022-12-20T17:05:00.817Z,44.05
2022-12-20T17:07:28.347Z,39.70
2022-12-20T17:10:13.266Z,44.20
2022-12-20T17:12:40.128Z,47.08
2022-12-20T17:15:08.279Z,42.08
2022-12-20T17:17:35.090Z,40.13
2022-12-20T17:20:02.162Z,43.97
2022-12-20T17:22:29.080Z,41.63
2022-12-20T17:24:55.871Z,41.05
2022-12-20T17:27:22.684Z,43.10
2022-12-20T17:29:51.267Z,42.42
2022-12-20T17:32:25.927Z,43.92
2022-12-20T17:34:53.315Z,40.53
2022-12-20T17:37:21.232Z,42.28
2022-12-20T17:39:48.448Z,41.20
2022-12-20T17:42:16.685Z,42.28
2022-12-20T17:44:43.634Z,36.50
2022-12-20T17:47:11.818Z,40.90
2022-12-20T17:49:39.141Z,44.78
2022-12-20T17:52:06.428Z,49.80
2022-12-20T17:54:39.435Z,44.28
2022-12-20T17:57:11.861Z,44.00
2022-12-20T17:59:38.624Z,48.80
2022-12-20T18:02:24.640Z,40.55
2022-12-20T18:04:52.334Z,43.05
2022-12-20T18:07:19.233Z,38.63
2022-12-20T18:09:49.421Z,40.42
2022-12-20T18:12:17.645Z,43.90
2022-12-20T18:14:45.153Z,39.80
2022-12-20T18:17:12.095Z,38.92
2022-12-20T18:19:39.570Z,39.28
2022-12-20T18:22:08.154Z,42.33
2022-12-20T18:24:34.985Z,38.08
2022-12-20T18:27:01.810Z,45.58
2022-12-20T18:29:31.547Z,39.13
2022-12-20T18:32:01.989Z,43.10
2022-12-20T18:34:29.233Z,42.15
2022-12-20T18:36:56.176Z,41.20
2022-12-20T18:39:23.887Z,46.10
2022-12-20T18:41:50.697Z,47.10
2022-12-20T18:44:17.918Z,47.28
2022-12-20T18:46:44.818Z,50.33
2022-12-20T18:49:12.258Z,64.20
2022-12-20T18:51:39.154Z,70.10
2022-12-20T18:54:14.318Z,92.85
2022-12-20T18:56:44.975Z,100.32
2022-12-20T18:59:13.615Z,96.50
2022-12-20T19:01:41.722Z,57.28
2022-12-20T19:04:09.392Z,52.72
2022-12-20T19:06:38.746Z,51.10
2022-12-20T19:09:11.539Z,48.72
2022-12-20T19:11:38.735Z,41.60
2022-12-20T19:14:08.250Z,50.60
2022-12-20T19:16:36.892Z,47.28
2022-12-20T19:19:04.826Z,44.70
2022-12-20T19:21:33.599Z,47.35
2022-12-20T19:24:07.533Z,54.53
2022-12-20T19:26:39.370Z,52.65
2022-12-20T19:29:07.244Z,63.00
2022-12-20T19:31:38.755Z,68.22
2022-12-20T19:34:15.025Z,44.58
2022-12-20T19:36:50.033Z,50.70
2022-12-20T19:39:38.860Z,47.35
2022-12-20T19:44:54.774Z,55.90
2022-12-20T19:47:21.782Z,39.35
2022-12-20T19:49:51.269Z,46.00
2022-12-20T19:52:28.079Z,46.22
2022-12-20T19:54:56.077Z,40.53
2022-12-20T19:57:22.991Z,40.17
2022-12-20T19:59:55.574Z,65.30
2022-12-20T20:02:23.389Z,57.17
2022-12-20T20:04:50.459Z,51.85
2022-12-20T20:07:18.703Z,46.15
2022-12-20T20:09:45.900Z,42.47
2022-12-20T20:12:13.081Z,45.03
2022-12-20T20:14:41.668Z,43.88
2022-12-20T20:17:16.408Z,49.45
2022-12-20T20:43:43.900Z,43.47
2022-12-20T20:46:13.787Z,65.05
2022-12-20T20:48:41.963Z,48.55
2022-12-20T20:51:16.208Z,41.90
2022-12-20T20:54:08.507Z,45.72
2022-12-20T20:56:36.076Z,40.88
2022-12-20T20:59:06.944Z,39.13
2022-12-20T21:01:35.870Z,44.17
2022-12-20T21:04:04.796Z,50.67
2022-12-20T21:06:47.009Z,65.38
2022-12-20T21:09:14.660Z,75.90
2022-12-20T21:11:44.236Z,54.53
2022-12-20T21:14:12.349Z,52.25
2022-12-20T21:16:41.223Z,60.58
2022-12-20T21:19:10.433Z,43.83
2022-12-20T21:21:37.299Z,43.70
2022-12-20T21:24:08.242Z,58.90
2022-12-20T21:26:35.103Z,79.93
2022-12-20T21:29:03.769Z,92.90
2022-12-20T21:31:31.279Z,46.53
2022-12-20T21:33:58.235Z,41.22
2022-12-20T21:36:26.822Z,48.70
2022-12-20T21:38:56.420Z,36.63
2022-12-20T21:41:26.244Z,43.40
2022-12-20T21:44:00.590Z,49.40
2022-12-20T21:46:29.703Z,52.85
2022-12-20T21:48:56.643Z,63.40
2022-12-20T21:51:25.942Z,64.30
2022-12-20T21:53:57.963Z,77.22
2022-12-20T21:56:27.404Z,47.72
2022-12-20T21:58:54.188Z,47.72
2022-12-20T22:01:25.263Z,51.08
2022-12-20T22:04:03.962Z,49.45
2022-12-20T22:06:32.885Z,61.72
2022-12-20T22:09:03.001Z,46.40
2022-12-20T22:11:29.763Z,93.22
2022-12-20T22:13:58.107Z,71.90
2022-12-20T22:16:28.425Z,51.33
2022-12-20T22:18:56.695Z,61.63
2022-12-20T22:21:27.092Z,53.28
2022-12-20T22:23:58.228Z,49.65
2022-12-20T22:26:28.654Z,52.45
2022-12-20T22:28:59.895Z,93.25
2022-12-20T22:31:27.390Z,62.50
2022-12-20T22:33:56.226Z,48.38
2022-12-20T22:36:23.499Z,60.80
2022-12-20T22:38:55.274Z,62.10
2022-12-20T22:41:28.944Z,55.75
2022-12-20T22:43:58.313Z,58.97
2022-12-20T22:46:25.863Z,63.72
2022-12-20T22:48:52.773Z,63.75
2022-12-20T22:51:22.927Z,73.05
2022-12-20T22:53:50.280Z,56.80
2022-12-20T22:56:19.658Z,54.67
2022-12-20T22:58:54.670Z,64.95
2022-12-20T23:01:23.366Z,63.80
2022-12-20T23:03:50.878Z,115.57
2022-12-20T23:06:20.483Z,67.43
2022-12-20T23:08:48.427Z,110.53
2022-12-20T23:11:45.093Z,70.65
2022-12-20T23:14:36.926Z,54.92
2022-12-20T23:17:05.414Z,74.95
2022-12-20T23:19:53.569Z,51.63
2022-12-20T23:22:40.968Z,47.78
2022-12-20T23:25:14.774Z,53.95
2022-12-20T23:27:43.932Z,40.47
2022-12-20T23:30:13.754Z,57.22
2022-12-20T23:32:44.545Z,46.58
2022-12-20T23:35:14.245Z,32.45
2022-12-20T23:37:41.863Z,39.50
2022-12-20T23:40:10.687Z,46.10
2022-12-20T23:42:38.373Z,38.78
2022-12-20T23:45:06.309Z,68.40
2022-12-20T23:47:33.382Z,58.78
2022-12-20T23:50:00.176Z,46.45
2022-12-20T23:52:27.454Z,43.17
2022-12-20T23:54:55.467Z,43.78
2022-12-20T23:57:22.683Z,48.90
2022-12-20T23:59:49.519Z,48.28
